Time;durP1;ratioP1;P1;durP2;ratioP2;P2;SDS_P1;SDS_P2;PMS_P1;PMS_P2;Temp;Humidity;BMP_temperature;BMP_pressure;BME280_temperature;BME280_humidity;BME280_pressure;Samples;Min_cycle;Max_cycle;Signal;HPM_P1;HPM_P2
2022/11/07 00:01:57;;;;;;;12.25;4.45;;;;;;;;;;5070805;28;20016;-80
2022/11/07 00:04:22;;;;;;;7.53;3.10;;;;;;;;;;5070895;28;20009;-76
2022/11/07 00:06:48;;;;;;;5.67;2.87;;;;;;;;;;5072919;28;20278;-76
2022/11/07 00:09:13;;;;;;;8.67;3.73;;;;;;;;;;5071844;28;20969;-76
2022/11/07 00:11:38;;;;;;;9.90;3.50;;;;;;;;;;5059570;28;20658;-76
2022/11/07 00:14:03;;;;;;;9.23;3.67;;;;;;;;;;5072530;28;20028;-77
2022/11/07 00:16:29;;;;;;;6.33;3.27;;;;;;;;;;5060515;28;20278;-76
2022/11/07 00:18:54;;;;;;;6.32;2.90;;;;;;;;;;5066555;28;20266;-74
2022/11/07 00:21:20;;;;;;;10.00;3.38;;;;;;;;;;5060906;28;20418;-74
2022/11/07 00:23:45;;;;;;;6.27;2.70;;;;;;;;;;5071852;28;20103;-77
2022/11/07 00:26:11;;;;;;;6.73;2.97;;;;;;;;;;5070502;28;20417;-75
2022/11/07 00:28:38;;;;;;;4.78;2.25;;;;;;;;;;5070741;28;20353;-75
2022/11/07 00:31:03;;;;;;;5.63;2.55;;;;;;;;;;5076474;28;20347;-76
2022/11/07 00:33:29;;;;;;;5.63;2.55;;;;;;;;;;5100400;28;20022;-74
2022/11/07 00:35:54;;;;;;;8.25;2.60;;;;;;;;;;5079948;28;20143;-75
2022/11/07 00:38:19;;;;;;;10.40;2.50;;;;;;;;;;5078232;28;20012;-76
2022/11/07 00:41:00;;;;;;;7.17;2.70;;;;;;;;;;5093906;28;20099;-75
2022/11/07 00:43:26;;;;;;;6.85;2.90;;;;;;;;;;5072957;28;20274;-75
2022/11/07 00:45:51;;;;;;;5.40;2.47;;;;;;;;;;5064071;28;20029;-74
2022/11/07 00:48:17;;;;;;;5.07;2.67;;;;;;;;;;5061105;28;20422;-76
2022/11/07 00:50:42;;;;;;;6.72;2.63;;;;;;;;;;5075765;28;20024;-74
2022/11/07 00:53:07;;;;;;;5.68;3.08;;;;;;;;;;5075093;28;20032;-74
2022/11/07 00:55:33;;;;;;;5.60;2.22;;;;;;;;;;5065933;28;20021;-74
2022/11/07 00:57:58;;;;;;;9.80;2.88;;;;;;;;;;5070939;28;20066;-74
2022/11/07 01:00:23;;;;;;;7.50;3.05;;;;;;;;;;5074915;28;20441;-74
2022/11/07 01:05:09;;;;;;;7.55;2.92;;;;;;;;;;5077158;28;20020;-74
2022/11/07 01:05:34;;;;;;;6.40;3.28;;;;;;;;;;5075134;28;20111;-74
2022/11/07 01:07:59;;;;;;;10.27;4.03;;;;;;;;;;5076901;28;20139;-74
2022/11/07 01:10:25;;;;;;;7.90;3.63;;;;;;;;;;5073371;28;20435;-75
2022/11/07 01:12:50;;;;;;;6.23;3.17;;;;;;;;;;5066990;28;20024;-73
2022/11/07 01:15:15;;;;;;;6.40;3.00;;;;;;;;;;5073044;28;20271;-73
2022/11/07 01:17:41;;;;;;;7.88;3.13;;;;;;;;;;5078635;28;20020;-74
2022/11/07 01:20:06;;;;;;;9.05;3.53;;;;;;;;;;5079435;28;20100;-75
2022/11/07 01:22:31;;;;;;;4.32;2.30;;;;;;;;;;5074250;28;20028;-75
2022/11/07 01:24:57;;;;;;;5.88;3.03;;;;;;;;;;5066402;28;20467;-74
2022/11/07 01:27:22;;;;;;;9.30;3.63;;;;;;;;;;5079120;28;20421;-75
2022/11/07 01:29:47;;;;;;;13.93;3.83;;;;;;;;;;5068362;28;20680;-75
2022/11/07 01:32:12;;;;;;;12.25;3.15;;;;;;;;;;5076689;28;20730;-75
2022/11/07 01:34:38;;;;;;;12.70;3.85;;;;;;;;;;5070127;28;20020;-76
2022/11/07 01:37:03;;;;;;;9.27;2.87;;;;;;;;;;5071255;28;20035;-75
2022/11/07 01:39:28;;;;;;;11.87;3.10;;;;;;;;;;5074955;28;20281;-75
2022/11/07 01:41:53;;;;;;;9.87;3.50;;;;;;;;;;5070148;28;20381;-74
2022/11/07 01:44:18;;;;;;;9.83;3.23;;;;;;;;;;5066140;28;20302;-75
2022/11/07 01:46:45;;;;;;;7.53;3.37;;;;;;;;;;5060382;28;20287;-75
2022/11/07 01:49:12;;;;;;;8.70;3.60;;;;;;;;;;5066587;28;20119;-75
2022/11/07 01:51:44;;;;;;;10.18;3.45;;;;;;;;;;5074041;28;20103;-75
2022/11/07 01:54:11;;;;;;;11.98;3.22;;;;;;;;;;5074230;28;20031;-75
2022/11/07 01:56:38;;;;;;;5.00;2.65;;;;;;;;;;5073834;28;20467;-75
2022/11/07 01:59:04;;;;;;;10.77;3.38;;;;;;;;;;5078481;28;20023;-75
2022/11/07 02:01:30;;;;;;;6.47;2.88;;;;;;;;;;5093018;28;20009;-75
2022/11/07 02:03:56;;;;;;;13.40;3.78;;;;;;;;;;5079247;28;20012;-75
2022/11/07 02:06:38;;;;;;;10.40;3.88;;;;;;;;;;5078841;28;20067;-75
2022/11/07 02:09:03;;;;;;;7.70;2.85;;;;;;;;;;5070882;28;20011;-74
2022/11/07 02:11:28;;;;;;;15.32;3.30;;;;;;;;;;5065845;28;20391;-77
2022/11/07 02:13:53;;;;;;;10.25;3.33;;;;;;;;;;5071025;28;20017;-76
2022/11/07 02:16:19;;;;;;;6.23;2.73;;;;;;;;;;5074124;28;20055;-75
2022/11/07 02:18:44;;;;;;;9.60;3.47;;;;;;;;;;5082858;28;20262;-76
2022/11/07 02:21:15;;;;;;;8.90;3.42;;;;;;;;;;5080991;28;20008;-74
2022/11/07 02:23:46;;;;;;;12.30;4.13;;;;;;;;;;5089545;28;20063;-76
2022/11/07 02:26:11;;;;;;;9.43;3.22;;;;;;;;;;5088070;28;20543;-75
2022/11/07 02:28:38;;;;;;;6.30;3.20;;;;;;;;;;5057310;28;20032;-75
2022/11/07 02:31:03;;;;;;;11.50;3.80;;;;;;;;;;5035570;28;20017;-77
2022/11/07 02:33:28;;;;;;;13.30;3.50;;;;;;;;;;5056106;28;20086;-76
2022/11/07 02:35:53;;;;;;;9.05;3.40;;;;;;;;;;5074026;28;20104;-75
2022/11/07 02:38:32;;;;;;;11.23;3.72;;;;;;;;;;5078013;28;20463;-75
2022/11/07 02:41:03;;;;;;;15.02;3.80;;;;;;;;;;5072193;28;20016;-75
2022/11/07 02:43:30;;;;;;;15.55;3.90;;;;;;;;;;5070977;28;20016;-77
2022/11/07 02:45:57;;;;;;;8.20;3.63;;;;;;;;;;5073919;28;20378;-75
2022/11/07 02:48:27;;;;;;;13.20;3.83;;;;;;;;;;5060321;28;20017;-74
2022/11/07 02:50:52;;;;;;;15.68;4.07;;;;;;;;;;5086435;28;20413;-76
2022/11/07 02:53:17;;;;;;;11.20;4.10;;;;;;;;;;5076287;28;20100;-75
2022/11/07 02:55:42;;;;;;;12.37;3.97;;;;;;;;;;5081781;28;20275;-75
2022/11/07 02:58:07;;;;;;;7.53;3.27;;;;;;;;;;5075170;28;20292;-73
2022/11/07 03:00:33;;;;;;;8.68;3.13;;;;;;;;;;5078523;28;20317;-75
2022/11/07 03:02:58;;;;;;;11.65;3.67;;;;;;;;;;5073350;28;20081;-76
2022/11/07 03:05:23;;;;;;;10.70;3.55;;;;;;;;;;5067620;28;20167;-76
2022/11/07 03:07:49;;;;;;;7.80;3.43;;;;;;;;;;5064646;28;20044;-75
2022/11/07 03:10:15;;;;;;;11.13;3.88;;;;;;;;;;5062054;28;20621;-75
2022/11/07 03:12:40;;;;;;;14.55;3.83;;;;;;;;;;5065496;28;20023;-75
2022/11/07 03:15:07;;;;;;;10.32;3.63;;;;;;;;;;5068877;28;20123;-76
2022/11/07 03:17:32;;;;;;;16.80;4.53;;;;;;;;;;5073301;28;20111;-75
2022/11/07 03:19:57;;;;;;;10.68;3.35;;;;;;;;;;5087063;28;20115;-75
2022/11/07 03:22:22;;;;;;;11.48;3.47;;;;;;;;;;5060301;28;20055;-76
2022/11/07 03:24:48;;;;;;;9.83;3.20;;;;;;;;;;5071518;28;20024;-74
2022/11/07 03:27:14;;;;;;;9.52;3.95;;;;;;;;;;5073044;28;20328;-74
2022/11/07 03:29:39;;;;;;;11.30;3.28;;;;;;;;;;5070979;28;20544;-77
2022/11/07 03:32:04;;;;;;;10.25;3.63;;;;;;;;;;5071369;28;20103;-75
2022/11/07 03:34:30;;;;;;;15.43;3.37;;;;;;;;;;5065081;28;20509;-75
2022/11/07 03:36:55;;;;;;;11.57;4.18;;;;;;;;;;5063117;28;20683;-76
2022/11/07 03:39:20;;;;;;;16.60;4.23;;;;;;;;;;5070655;28;20004;-76
2022/11/07 03:41:45;;;;;;;9.95;3.55;;;;;;;;;;5063551;28;20282;-76
2022/11/07 03:44:11;;;;;;;9.30;3.63;;;;;;;;;;5073902;28;20405;-76
2022/11/07 03:46:36;;;;;;;12.37;4.03;;;;;;;;;;5066261;28;20777;-76
2022/11/07 03:49:01;;;;;;;10.23;3.20;;;;;;;;;;5066464;28;20789;-77
2022/11/07 03:51:26;;;;;;;13.68;3.67;;;;;;;;;;5071482;28;20349;-75
2022/11/07 03:53:51;;;;;;;10.27;4.10;;;;;;;;;;5072735;28;20360;-76
2022/11/07 03:56:17;;;;;;;11.67;3.27;;;;;;;;;;5072564;28;20262;-75
2022/11/07 03:58:42;;;;;;;8.63;4.57;;;;;;;;;;5071809;28;20278;-76
2022/11/07 04:01:09;;;;;;;9.93;3.47;;;;;;;;;;5059368;28;20474;-75
2022/11/07 04:03:34;;;;;;;8.07;3.28;;;;;;;;;;5071406;28;20278;-75
2022/11/07 04:05:59;;;;;;;14.63;4.20;;;;;;;;;;5071134;28;20020;-75
2022/11/07 04:08:25;;;;;;;9.23;3.67;;;;;;;;;;5072656;28;20019;-75
2022/11/07 04:10:50;;;;;;;7.05;3.20;;;;;;;;;;5072489;28;20020;-76
2022/11/07 04:18:43;;;;;;;10.00;3.50;;;;;;;;;;5058564;28;20501;-75
2022/11/07 04:21:08;;;;;;;10.55;3.85;;;;;;;;;;5071802;28;20107;-74
2022/11/07 04:23:33;;;;;;;15.67;3.90;;;;;;;;;;5073028;28;20030;-76
2022/11/07 04:28:43;;;;;;;13.88;3.83;;;;;;;;;;5072640;28;20067;-75
2022/11/07 04:31:08;;;;;;;11.48;3.97;;;;;;;;;;5072315;28;20016;-76
2022/11/07 04:33:33;;;;;;;13.95;3.70;;;;;;;;;;5084793;28;20016;-75
2022/11/07 04:35:58;;;;;;;7.87;3.57;;;;;;;;;;5071467;28;20328;-76
2022/11/07 04:38:24;;;;;;;9.03;3.27;;;;;;;;;;5079346;28;20783;-75
2022/11/07 04:40:56;;;;;;;16.60;4.83;;;;;;;;;;5073291;28;20721;-77
2022/11/07 04:43:22;;;;;;;14.70;4.05;;;;;;;;;;5071027;28;20316;-76
2022/11/07 04:45:47;;;;;;;11.35;4.00;;;;;;;;;;5071177;28;20020;-75
2022/11/07 04:48:12;;;;;;;8.17;3.63;;;;;;;;;;5070217;28;20048;-75
2022/11/07 04:50:38;;;;;;;13.02;3.78;;;;;;;;;;5071707;28;20295;-76
2022/11/07 04:53:03;;;;;;;15.32;4.10;;;;;;;;;;5057874;28;20024;-77
2022/11/07 04:55:31;;;;;;;10.70;3.78;;;;;;;;;;5069173;28;20116;-76
2022/11/07 04:57:57;;;;;;;10.18;4.03;;;;;;;;;;5069867;28;20032;-74
2022/11/07 05:00:22;;;;;;;13.73;4.32;;;;;;;;;;5067430;28;20044;-75
2022/11/07 05:02:48;;;;;;;20.80;3.83;;;;;;;;;;5067925;28;20021;-76
2022/11/07 05:05:14;;;;;;;12.48;4.10;;;;;;;;;;5073026;28;20077;-76
2022/11/07 05:07:39;;;;;;;11.48;3.97;;;;;;;;;;5071823;28;20501;-75
2022/11/07 05:10:05;;;;;;;10.27;3.15;;;;;;;;;;5070068;28;20017;-76
2022/11/07 05:12:30;;;;;;;9.80;3.72;;;;;;;;;;5053701;28;20386;-76
2022/11/07 05:14:55;;;;;;;19.60;4.87;;;;;;;;;;5070073;28;20095;-76
2022/11/07 05:17:21;;;;;;;12.60;3.95;;;;;;;;;;5073454;28;20397;-75
2022/11/07 05:19:46;;;;;;;9.65;3.15;;;;;;;;;;5065299;28;20025;-75
2022/11/07 05:24:55;;;;;;;8.63;3.17;;;;;;;;;;5065502;28;20036;-76
2022/11/07 05:27:21;;;;;;;14.30;3.53;;;;;;;;;;5064875;28;20021;-81
2022/11/07 05:29:47;;;;;;;8.95;3.70;;;;;;;;;;5068910;28;20263;-76
2022/11/07 05:32:12;;;;;;;12.15;4.00;;;;;;;;;;5067305;28;20387;-76
2022/11/07 05:34:37;;;;;;;10.65;3.47;;;;;;;;;;5065929;28;20027;-77
2022/11/07 05:37:05;;;;;;;10.35;4.13;;;;;;;;;;5065479;28;20086;-78
2022/11/07 05:39:31;;;;;;;9.57;3.47;;;;;;;;;;5062207;28;20364;-74
2022/11/07 05:41:56;;;;;;;18.30;4.53;;;;;;;;;;5066212;28;20031;-75
2022/11/07 05:44:21;;;;;;;10.73;4.10;;;;;;;;;;5064338;28;20062;-74
2022/11/07 05:46:46;;;;;;;10.23;4.00;;;;;;;;;;5066915;28;20286;-80
2022/11/07 05:49:11;;;;;;;14.80;4.43;;;;;;;;;;5067222;28;20295;-76
2022/11/07 05:51:37;;;;;;;10.53;3.57;;;;;;;;;;5046639;28;20267;-76
2022/11/07 05:54:02;;;;;;;13.32;4.15;;;;;;;;;;5052610;28;20342;-75
2022/11/07 05:56:27;;;;;;;7.73;3.27;;;;;;;;;;5049777;28;20020;-76
2022/11/07 05:58:52;;;;;;;11.18;3.75;;;;;;;;;;5074980;28;20780;-76
2022/11/07 06:01:18;;;;;;;9.27;3.85;;;;;;;;;;5071844;28;20025;-75
2022/11/07 06:03:45;;;;;;;12.47;4.33;;;;;;;;;;5068910;28;20035;-76
2022/11/07 06:06:10;;;;;;;20.45;5.00;;;;;;;;;;5067145;28;20884;-76
2022/11/07 06:08:35;;;;;;;14.67;4.73;;;;;;;;;;5062359;28;20091;-79
2022/11/07 06:11:04;;;;;;;18.03;3.87;;;;;;;;;;5049498;28;20292;-76
2022/11/07 06:13:30;;;;;;;16.90;3.30;;;;;;;;;;5049048;28;21020;-74
2022/11/07 06:15:56;;;;;;;11.20;4.07;;;;;;;;;;5051315;28;20023;-74
2022/11/07 06:18:21;;;;;;;13.95;4.30;;;;;;;;;;5047606;28;20271;-75
2022/11/07 06:20:46;;;;;;;12.75;3.92;;;;;;;;;;5058092;28;20028;-75
2022/11/07 06:23:12;;;;;;;11.13;3.92;;;;;;;;;;5058022;28;20081;-76
2022/11/07 06:25:37;;;;;;;10.77;4.15;;;;;;;;;;5059341;28;20056;-75
2022/11/07 06:28:08;;;;;;;12.48;4.00;;;;;;;;;;5057321;28;20926;-75
2022/11/07 06:30:33;;;;;;;12.98;3.83;;;;;;;;;;5058554;28;20020;-75
2022/11/07 06:33:00;;;;;;;7.28;3.63;;;;;;;;;;5063507;28;20037;-75
2022/11/07 06:35:26;;;;;;;8.05;3.20;;;;;;;;;;5057167;28;20028;-76
2022/11/07 06:37:51;;;;;;;13.20;4.73;;;;;;;;;;5058469;28;20017;-77
2022/11/07 06:40:16;;;;;;;11.27;4.13;;;;;;;;;;5059300;28;20273;-75
2022/11/07 06:42:41;;;;;;;14.75;4.68;;;;;;;;;;5060476;28;20267;-74
2022/11/07 06:45:07;;;;;;;10.70;4.00;;;;;;;;;;5055903;28;20035;-77
2022/11/07 06:47:32;;;;;;;10.57;4.35;;;;;;;;;;5052712;28;20283;-75
2022/11/07 06:49:57;;;;;;;9.10;3.63;;;;;;;;;;5060371;28;20021;-75
2022/11/07 06:52:22;;;;;;;17.80;4.07;;;;;;;;;;5058880;28;20301;-76
2022/11/07 06:54:47;;;;;;;10.02;3.65;;;;;;;;;;5050194;28;20462;-75
2022/11/07 06:57:13;;;;;;;14.25;4.28;;;;;;;;;;5044801;28;20028;-73
2022/11/07 06:59:38;;;;;;;15.27;4.70;;;;;;;;;;5043204;28;20087;-75
2022/11/07 07:02:03;;;;;;;12.27;4.07;;;;;;;;;;5043617;28;20275;-78
2022/11/07 07:04:28;;;;;;;15.23;4.15;;;;;;;;;;5039928;28;20023;-76
2022/11/07 07:06:54;;;;;;;11.57;4.13;;;;;;;;;;5021716;28;20144;-74
2022/11/07 07:09:19;;;;;;;11.40;3.97;;;;;;;;;;5033234;28;20324;-80
2022/11/07 07:11:44;;;;;;;18.08;4.93;;;;;;;;;;5031569;28;20024;-76
2022/11/07 07:14:10;;;;;;;14.70;4.83;;;;;;;;;;5022101;28;20017;-73
2022/11/07 07:16:35;;;;;;;8.07;3.55;;;;;;;;;;5029872;28;20290;-73
2022/11/07 07:19:01;;;;;;;14.63;4.43;;;;;;;;;;5032705;28;20020;-76
2022/11/07 07:21:26;;;;;;;12.35;4.30;;;;;;;;;;5031784;28;20373;-76
2022/11/07 07:23:51;;;;;;;14.05;4.70;;;;;;;;;;5031315;28;20123;-76
2022/11/07 07:26:17;;;;;;;14.77;4.00;;;;;;;;;;5030309;28;20040;-76
2022/11/07 07:28:43;;;;;;;12.10;4.78;;;;;;;;;;5044619;28;20035;-77
2022/11/07 07:31:08;;;;;;;15.55;4.65;;;;;;;;;;5033574;28;20054;-77
2022/11/07 07:33:33;;;;;;;15.77;3.95;;;;;;;;;;5032569;28;20024;-74
2022/11/07 07:35:58;;;;;;;10.80;3.40;;;;;;;;;;5033854;28;20028;-77
2022/11/07 07:38:24;;;;;;;13.67;4.43;;;;;;;;;;5046964;28;21169;-76
2022/11/07 07:40:49;;;;;;;10.03;3.93;;;;;;;;;;5031758;28;20286;-74
2022/11/07 07:43:14;;;;;;;14.80;4.50;;;;;;;;;;5031200;28;20939;-75
2022/11/07 07:45:39;;;;;;;16.20;4.80;;;;;;;;;;5031324;28;20285;-74
2022/11/07 07:48:04;;;;;;;12.75;3.95;;;;;;;;;;5019324;28;20786;-74
2022/11/07 07:50:30;;;;;;;13.00;3.78;;;;;;;;;;5031016;28;20020;-75
2022/11/07 07:52:56;;;;;;;12.80;4.43;;;;;;;;;;5028468;28;20093;-75
2022/11/07 07:55:21;;;;;;;13.18;4.45;;;;;;;;;;5030086;28;20020;-73
2022/11/07 07:57:46;;;;;;;16.52;4.80;;;;;;;;;;5043672;28;20776;-76
2022/11/07 08:00:12;;;;;;;12.48;4.35;;;;;;;;;;5046772;28;20028;-77
2022/11/07 08:02:37;;;;;;;11.15;4.93;;;;;;;;;;5050345;28;20020;-76
2022/11/07 08:05:03;;;;;;;12.50;4.88;;;;;;;;;;5052455;28;20036;-76
2022/11/07 08:07:28;;;;;;;10.93;3.95;;;;;;;;;;5049970;28;20066;-78
2022/11/07 08:09:53;;;;;;;14.17;4.73;;;;;;;;;;5052438;28;20012;-77
2022/11/07 08:12:18;;;;;;;10.67;3.87;;;;;;;;;;5051114;28;20274;-77
2022/11/07 08:14:43;;;;;;;22.27;5.47;;;;;;;;;;5047106;28;20321;-77
2022/11/07 08:17:09;;;;;;;12.30;4.10;;;;;;;;;;5049991;28;20270;-75
2022/11/07 08:19:34;;;;;;;14.07;4.67;;;;;;;;;;5039153;28;20346;-76
2022/11/07 08:21:59;;;;;;;13.70;4.37;;;;;;;;;;5047525;28;20283;-75
2022/11/07 08:24:24;;;;;;;11.00;4.07;;;;;;;;;;5048100;28;20387;-75
2022/11/07 08:26:49;;;;;;;14.70;4.70;;;;;;;;;;5049576;28;20036;-74
2022/11/07 08:29:15;;;;;;;12.73;4.30;;;;;;;;;;5063750;28;20801;-75
2022/11/07 08:31:40;;;;;;;13.52;4.28;;;;;;;;;;5055421;28;20083;-76
2022/11/07 08:34:05;;;;;;;14.30;5.10;;;;;;;;;;5053181;28;20021;-76
2022/11/07 08:36:30;;;;;;;17.70;4.97;;;;;;;;;;5057249;28;20332;-75
2022/11/07 08:38:55;;;;;;;11.30;4.27;;;;;;;;;;5056123;28;20266;-75
2022/11/07 08:41:21;;;;;;;16.97;3.30;;;;;;;;;;5066650;28;20265;-76
2022/11/07 08:43:47;;;;;;;16.60;4.23;;;;;;;;;;5051648;28;20277;-76
2022/11/07 08:46:12;;;;;;;17.25;4.18;;;;;;;;;;5049948;28;20776;-77
2022/11/07 08:48:41;;;;;;;14.00;4.60;;;;;;;;;;5043436;28;20036;-75
2022/11/07 08:51:07;;;;;;;14.75;4.13;;;;;;;;;;5053365;28;20267;-76
2022/11/07 08:53:33;;;;;;;16.83;4.82;;;;;;;;;;5061505;28;20124;-76
2022/11/07 08:56:02;;;;;;;15.13;4.88;;;;;;;;;;5055088;28;20089;-75
2022/11/07 08:58:27;;;;;;;12.82;4.07;;;;;;;;;;5050755;28;20943;-77
2022/11/07 09:00:52;;;;;;;11.87;3.90;;;;;;;;;;5075588;28;20033;-78
2022/11/07 09:03:18;;;;;;;19.77;4.57;;;;;;;;;;5063575;28;20350;-75
2022/11/07 09:05:43;;;;;;;13.55;4.72;;;;;;;;;;5058741;28;20305;-76
2022/11/07 09:08:08;;;;;;;12.03;4.97;;;;;;;;;;5053478;28;20880;-77
2022/11/07 09:10:33;;;;;;;13.43;5.00;;;;;;;;;;5053370;28;21196;-75
2022/11/07 09:12:59;;;;;;;24.10;6.43;;;;;;;;;;5057831;28;20259;-76
2022/11/07 09:15:24;;;;;;;14.55;5.30;;;;;;;;;;5057911;28;20056;-77
2022/11/07 09:17:49;;;;;;;10.00;4.30;;;;;;;;;;5057812;28;20028;-78
2022/11/07 09:20:15;;;;;;;14.15;4.13;;;;;;;;;;5055333;28;20055;-78
2022/11/07 09:22:40;;;;;;;19.00;4.55;;;;;;;;;;5058419;28;20076;-78
2022/11/07 09:25:06;;;;;;;21.02;5.15;;;;;;;;;;5054545;28;20082;-77
2022/11/07 09:27:31;;;;;;;6.65;3.42;;;;;;;;;;5060219;28;20121;-74
2022/11/07 09:29:57;;;;;;;13.70;4.65;;;;;;;;;;5059250;28;20058;-79
2022/11/07 09:32:22;;;;;;;13.13;4.57;;;;;;;;;;5057594;28;20025;-76
2022/11/07 09:34:47;;;;;;;14.95;5.18;;;;;;;;;;5052545;28;20354;-76
2022/11/07 09:37:12;;;;;;;11.13;4.57;;;;;;;;;;5055202;28;20093;-78
2022/11/07 09:39:38;;;;;;;13.27;3.83;;;;;;;;;;5050366;28;20371;-77
2022/11/07 09:42:18;;;;;;;20.88;5.25;;;;;;;;;;5053520;28;20321;-77
2022/11/07 09:44:54;;;;;;;28.20;6.20;;;;;;;;;;5051322;28;20074;-77
2022/11/07 09:47:19;;;;;;;14.32;4.90;;;;;;;;;;5044331;28;20428;-76
2022/11/07 09:49:46;;;;;;;13.52;4.25;;;;;;;;;;5054951;28;20059;-77
2022/11/07 09:52:15;;;;;;;13.73;4.45;;;;;;;;;;5052260;28;20109;-77
2022/11/07 09:54:44;;;;;;;16.77;4.47;;;;;;;;;;5019821;28;20058;-76
2022/11/07 09:57:12;;;;;;;17.25;5.20;;;;;;;;;;5051821;28;20569;-78
2022/11/07 09:59:41;;;;;;;13.60;5.30;;;;;;;;;;5047620;28;20031;-80
2022/11/07 10:02:17;;;;;;;13.55;4.80;;;;;;;;;;5054185;28;20016;-80
2022/11/07 10:04:43;;;;;;;16.58;4.47;;;;;;;;;;5052426;28;20028;-77
2022/11/07 10:07:28;;;;;;;12.90;4.45;;;;;;;;;;5049459;28;20139;-79
2022/11/07 10:10:02;;;;;;;18.15;4.43;;;;;;;;;;5048685;28;20882;-75
2022/11/07 10:12:36;;;;;;;10.77;4.30;;;;;;;;;;5045598;28;20483;-77
2022/11/07 10:15:04;;;;;;;15.57;4.30;;;;;;;;;;5046644;28;20024;-78
2022/11/07 10:17:38;;;;;;;7.55;3.45;;;;;;;;;;5046458;28;20020;-79
2022/11/07 10:20:15;;;;;;;16.13;5.20;;;;;;;;;;5046690;28;20028;-80
2022/11/07 10:22:49;;;;;;;13.50;4.25;;;;;;;;;;5046534;28;20029;-74
2022/11/07 10:25:19;;;;;;;10.45;4.32;;;;;;;;;;5047014;28;20790;-79
2022/11/07 10:27:47;;;;;;;12.80;4.32;;;;;;;;;;5047870;28;20392;-79
2022/11/07 10:30:17;;;;;;;11.57;4.75;;;;;;;;;;5044856;28;20027;-80
2022/11/07 10:32:50;;;;;;;10.77;3.92;;;;;;;;;;5054305;28;21082;-78
2022/11/07 10:35:19;;;;;;;13.65;4.05;;;;;;;;;;5045345;28;20016;-79
2022/11/07 10:37:52;;;;;;;15.55;4.07;;;;;;;;;;5044922;28;20032;-80
2022/11/07 10:40:18;;;;;;;9.80;4.13;;;;;;;;;;5056244;28;20039;-82
2022/11/07 10:42:44;;;;;;;16.15;4.70;;;;;;;;;;5043859;28;20803;-81
2022/11/07 10:45:14;;;;;;;14.85;3.95;;;;;;;;;;5053607;28;20020;-81
2022/11/07 10:47:40;;;;;;;11.18;4.35;;;;;;;;;;5033857;28;20759;-79
2022/11/07 10:50:19;;;;;;;11.70;4.40;;;;;;;;;;5030148;28;20084;-74
2022/11/07 10:52:54;;;;;;;10.07;4.53;;;;;;;;;;5031954;28;20027;-73
2022/11/07 10:55:20;;;;;;;18.38;4.50;;;;;;;;;;5025721;28;20967;-70
2022/11/07 10:57:49;;;;;;;17.08;4.78;;;;;;;;;;5030558;28;20027;-79
2022/11/07 11:00:22;;;;;;;11.48;4.50;;;;;;;;;;5028348;28;20923;-78
2022/11/07 11:02:48;;;;;;;12.27;3.80;;;;;;;;;;5020732;28;20078;-74
2022/11/07 11:05:31;;;;;;;13.55;3.83;;;;;;;;;;5029281;28;20024;-77
2022/11/07 11:08:06;;;;;;;16.13;3.47;;;;;;;;;;5025101;28;20187;-78
2022/11/07 11:10:36;;;;;;;11.55;4.13;;;;;;;;;;5032140;28;20012;-74
2022/11/07 11:13:01;;;;;;;8.93;3.45;;;;;;;;;;5031832;28;20027;-74
2022/11/07 11:15:26;;;;;;;13.87;4.43;;;;;;;;;;5029542;28;20115;-76
2022/11/07 11:17:57;;;;;;;15.52;4.03;;;;;;;;;;5033779;28;20270;-77
2022/11/07 11:20:42;;;;;;;9.35;3.35;;;;;;;;;;5032125;28;20120;-73
2022/11/07 11:23:18;;;;;;;15.43;2.78;;;;;;;;;;5029458;28;20044;-74
2022/11/07 11:25:44;;;;;;;10.85;3.17;;;;;;;;;;5030847;28;20016;-76
2022/11/07 11:28:13;;;;;;;9.88;3.75;;;;;;;;;;5032304;28;20017;-75
2022/11/07 11:30:39;;;;;;;9.80;3.58;;;;;;;;;;5028435;28;20105;-74
2022/11/07 11:33:24;;;;;;;12.43;3.80;;;;;;;;;;5026945;28;20857;-76
2022/11/07 11:35:54;;;;;;;9.50;4.40;;;;;;;;;;5028437;28;20043;-74
2022/11/07 11:38:32;;;;;;;12.25;4.18;;;;;;;;;;5028915;28;20024;-73
2022/11/07 11:41:06;;;;;;;11.88;3.17;;;;;;;;;;5031444;28;20823;-75
2022/11/07 11:43:37;;;;;;;13.55;4.05;;;;;;;;;;5027202;28;20976;-75
2022/11/07 11:46:05;;;;;;;9.25;3.75;;;;;;;;;;5029618;28;20020;-75
2022/11/07 11:48:38;;;;;;;8.77;3.13;;;;;;;;;;5024879;28;20048;-75
2022/11/07 11:51:27;;;;;;;9.07;3.47;;;;;;;;;;5023906;28;20120;-74
2022/11/07 11:53:52;;;;;;;10.07;3.17;;;;;;;;;;5009155;28;20474;-77
2022/11/07 11:56:43;;;;;;;7.15;2.83;;;;;;;;;;5030066;28;20051;-74
2022/11/07 11:59:27;;;;;;;11.27;3.47;;;;;;;;;;5014080;28;20032;-74
2022/11/07 12:02:01;;;;;;;10.13;2.72;;;;;;;;;;5026802;28;20020;-78
2022/11/07 12:04:38;;;;;;;9.05;2.97;;;;;;;;;;5025735;28;20025;-73
2022/11/07 12:07:22;;;;;;;7.72;3.20;;;;;;;;;;5026026;28;20065;-75
2022/11/07 12:09:50;;;;;;;9.50;2.97;;;;;;;;;;5025097;28;20082;-75
2022/11/07 12:12:27;;;;;;;11.85;3.35;;;;;;;;;;5034738;28;20020;-74
2022/11/07 12:14:58;;;;;;;12.38;3.45;;;;;;;;;;5024808;28;20020;-76
2022/11/07 12:17:29;;;;;;;12.98;3.78;;;;;;;;;;5034908;28;20039;-73
2022/11/07 12:20:01;;;;;;;11.07;2.97;;;;;;;;;;5043218;28;20026;-75
2022/11/07 12:22:26;;;;;;;10.80;3.17;;;;;;;;;;5028920;28;20086;-74
2022/11/07 12:25:08;;;;;;;13.38;3.13;;;;;;;;;;5029070;28;20132;-74
2022/11/07 12:27:53;;;;;;;7.55;3.17;;;;;;;;;;5027321;28;20025;-78
2022/11/07 12:30:23;;;;;;;22.25;4.18;;;;;;;;;;5040785;28;20136;-77
2022/11/07 12:32:53;;;;;;;9.65;3.70;;;;;;;;;;5027254;28;20017;-77
2022/11/07 12:35:39;;;;;;;8.50;3.30;;;;;;;;;;5033431;28;20020;-77
2022/11/07 12:38:23;;;;;;;11.90;3.20;;;;;;;;;;5042080;28;20086;-77
2022/11/07 12:40:56;;;;;;;10.68;3.20;;;;;;;;;;5044236;28;20027;-75
2022/11/07 12:43:21;;;;;;;9.02;2.65;;;;;;;;;;5037230;28;20841;-77
2022/11/07 12:45:56;;;;;;;6.97;2.80;;;;;;;;;;5036621;28;20019;-75
2022/11/07 12:48:27;;;;;;;8.38;3.03;;;;;;;;;;5037479;28;20016;-77
2022/11/07 12:51:02;;;;;;;8.48;3.50;;;;;;;;;;5027834;28;20120;-76
2022/11/07 12:53:30;;;;;;;10.05;3.50;;;;;;;;;;5032079;28;20769;-72
2022/11/07 12:55:57;;;;;;;13.52;2.75;;;;;;;;;;5033852;28;20024;-77
2022/11/07 12:58:25;;;;;;;9.30;3.30;;;;;;;;;;5033997;28;20117;-72
2022/11/07 13:00:50;;;;;;;7.30;3.03;;;;;;;;;;5034458;28;20024;-74
2022/11/07 13:03:21;;;;;;;9.00;2.97;;;;;;;;;;5046519;28;20032;-78
2022/11/07 13:05:55;;;;;;;19.73;3.83;;;;;;;;;;5029837;28;20815;-78
2022/11/07 13:08:27;;;;;;;10.48;2.90;;;;;;;;;;5045788;28;20039;-76
2022/11/07 13:10:57;;;;;;;6.72;2.78;;;;;;;;;;5026769;28;20182;-77
2022/11/07 13:13:30;;;;;;;5.72;2.78;;;;;;;;;;5024110;28;20852;-74
2022/11/07 13:16:03;;;;;;;10.60;3.08;;;;;;;;;;5026569;28;20916;-76
2022/11/07 13:18:28;;;;;;;11.38;3.67;;;;;;;;;;5031976;28;20841;-76
2022/11/07 13:20:58;;;;;;;8.63;3.70;;;;;;;;;;5028836;28;20012;-74
2022/11/07 13:23:24;;;;;;;9.27;3.35;;;;;;;;;;5023165;28;20086;-75
2022/11/07 13:25:56;;;;;;;10.77;2.55;;;;;;;;;;5028135;28;20034;-73
2022/11/07 13:28:41;;;;;;;9.13;3.45;;;;;;;;;;5029658;28;20123;-74
2022/11/07 13:31:26;;;;;;;10.55;2.97;;;;;;;;;;5027236;28;20019;-73
2022/11/07 13:33:51;;;;;;;7.30;2.83;;;;;;;;;;5029200;28;20009;-72
2022/11/07 13:36:24;;;;;;;9.30;3.33;;;;;;;;;;5029302;28;20032;-74
2022/11/07 13:38:51;;;;;;;7.85;2.83;;;;;;;;;;5026228;28;20017;-76
2022/11/07 13:41:17;;;;;;;6.65;3.08;;;;;;;;;;5027702;28;20016;-73
2022/11/07 13:43:44;;;;;;;6.50;3.25;;;;;;;;;;5026915;28;20821;-74
2022/11/07 13:46:30;;;;;;;15.13;3.70;;;;;;;;;;5025653;28;20028;-74
2022/11/07 13:49:01;;;;;;;9.77;3.53;;;;;;;;;;5023296;28;20073;-74
2022/11/07 13:51:43;;;;;;;8.30;3.00;;;;;;;;;;5029400;28;20124;-73
2022/11/07 13:54:26;;;;;;;9.00;2.85;;;;;;;;;;5025344;28;20029;-73
2022/11/07 13:56:58;;;;;;;9.57;2.88;;;;;;;;;;5027600;28;20762;-73
2022/11/07 13:59:29;;;;;;;7.30;2.30;;;;;;;;;;5030375;28;20358;-73
2022/11/07 14:01:55;;;;;;;8.95;3.00;;;;;;;;;;5026241;28;20012;-73
2022/11/07 14:04:21;;;;;;;10.15;2.63;;;;;;;;;;5033748;28;20013;-74
2022/11/07 14:06:47;;;;;;;6.95;2.78;;;;;;;;;;5026232;28;20033;-73
2022/11/07 14:09:14;;;;;;;7.13;2.85;;;;;;;;;;5032473;28;20983;-73
2022/11/07 14:11:39;;;;;;;9.27;2.95;;;;;;;;;;5034599;28;20020;-73
2022/11/07 14:14:05;;;;;;;9.00;3.03;;;;;;;;;;5029695;28;20017;-72
2022/11/07 14:16:31;;;;;;;6.63;2.78;;;;;;;;;;5027869;28;20105;-72
2022/11/07 14:19:01;;;;;;;8.30;2.53;;;;;;;;;;5030972;28;20881;-73
2022/11/07 14:21:30;;;;;;;11.63;5.53;;;;;;;;;;5032946;28;20251;-72
2022/11/07 14:23:56;;;;;;;9.70;3.75;;;;;;;;;;5030913;28;20074;-72
2022/11/07 14:26:22;;;;;;;5.22;2.92;;;;;;;;;;5041455;28;20131;-72
2022/11/07 14:28:48;;;;;;;14.35;3.72;;;;;;;;;;5036025;28;20769;-72
2022/11/07 14:31:39;;;;;;;7.47;3.33;;;;;;;;;;5033279;28;20044;-73
2022/11/07 14:34:15;;;;;;;8.43;2.55;;;;;;;;;;5019410;28;20036;-73
2022/11/07 14:36:51;;;;;;;5.88;2.30;;;;;;;;;;5029428;28;20040;-72
2022/11/07 14:39:18;;;;;;;7.05;3.15;;;;;;;;;;5028290;28;20017;-74
2022/11/07 14:41:43;;;;;;;7.45;3.25;;;;;;;;;;5031291;28;20020;-73
2022/11/07 14:44:13;;;;;;;9.63;3.17;;;;;;;;;;5030233;28;20110;-71
2022/11/07 14:46:38;;;;;;;8.98;3.25;;;;;;;;;;5029936;28;20020;-73
2022/11/07 14:49:04;;;;;;;11.38;2.88;;;;;;;;;;5031450;28;20089;-74
2022/11/07 14:51:29;;;;;;;12.95;3.10;;;;;;;;;;5031683;28;20035;-72